Time;durP1;ratioP1;P1;durP2;ratioP2;P2;SDS_P1;SDS_P2;PMS_P1;PMS_P2;Temp;Humidity;BMP_temperature;BMP_pressure;BME280_temperature;BME280_humidity;BME280_pressure;Samples;Min_cycle;Max_cycle;Signal;HPM_P1;HPM_P2
2023/12/03 00:00:08;;;;;;;23.50;11.83;;;-0.30;99.90;;;;;;4991635;28;20042;-78
2023/12/03 00:02:36;;;;;;;21.57;11.43;;;-0.30;99.90;;;;;;4995733;28;20049;-76
2023/12/03 00:05:03;;;;;;;22.50;11.50;;;-0.40;99.90;;;;;;4995810;28;20050;-77
2023/12/03 00:07:29;;;;;;;22.63;11.00;;;-0.40;99.90;;;;;;4994804;28;20179;-78
2023/12/03 00:09:58;;;;;;;20.93;10.40;;;-0.40;99.90;;;;;;4994190;28;20051;-78
2023/12/03 00:12:24;;;;;;;23.47;10.83;;;-0.40;99.90;;;;;;4997802;28;20041;-78
2023/12/03 00:14:50;;;;;;;24.13;11.67;;;-0.40;99.90;;;;;;4994382;28;20760;-78
2023/12/03 00:17:15;;;;;;;23.83;11.53;;;-0.40;99.90;;;;;;4997236;28;20419;-78
2023/12/03 00:19:41;;;;;;;18.43;10.77;;;-0.40;99.90;;;;;;4995592;28;20042;-79
2023/12/03 00:22:08;;;;;;;18.33;9.77;;;-0.50;99.90;;;;;;4996626;28;20145;-78
2023/12/03 00:24:33;;;;;;;13.63;8.37;;;-0.50;99.90;;;;;;5002060;28;20046;-78
2023/12/03 00:26:59;;;;;;;17.57;10.03;;;-0.50;99.90;;;;;;5001459;28;20075;-78
2023/12/03 00:29:25;;;;;;;18.87;11.00;;;-0.50;99.90;;;;;;4985830;28;20515;-78
2023/12/03 00:31:52;;;;;;;15.50;8.70;;;-0.60;99.90;;;;;;5000276;28;20034;-78
2023/12/03 00:34:18;;;;;;;17.63;8.80;;;-0.60;99.90;;;;;;4998617;28;20053;-79
2023/12/03 00:36:43;;;;;;;15.97;8.53;;;-0.70;99.90;;;;;;4998535;28;20519;-79
2023/12/03 00:39:09;;;;;;;16.50;8.50;;;-0.70;99.90;;;;;;5000522;28;20034;-78
2023/12/03 00:41:35;;;;;;;14.13;8.07;;;-0.80;99.90;;;;;;4984699;28;20100;-79
2023/12/03 00:44:00;;;;;;;16.77;8.70;;;-0.80;99.90;;;;;;4993964;28;20038;-78
2023/12/03 00:46:26;;;;;;;14.20;7.73;;;-0.90;99.90;;;;;;4996872;28;20033;-76
2023/12/03 00:48:52;;;;;;;15.27;7.97;;;-0.90;99.90;;;;;;4985855;28;20042;-76
2023/12/03 00:51:18;;;;;;;15.63;8.10;;;-1.00;99.90;;;;;;4999133;28;20041;-79
2023/12/03 00:53:44;;;;;;;14.47;8.10;;;-1.00;99.90;;;;;;5003006;28;20443;-79
2023/12/03 00:56:10;;;;;;;14.87;8.70;;;-1.00;99.90;;;;;;5001588;28;20077;-78
2023/12/03 00:58:36;;;;;;;14.33;8.47;;;-1.00;99.90;;;;;;4999598;28;20053;-79
2023/12/03 01:01:02;;;;;;;14.30;7.83;;;-1.00;99.90;;;;;;5004703;28;20396;-77
2023/12/03 01:03:28;;;;;;;13.93;8.27;;;-1.00;99.90;;;;;;5001280;28;20060;-79
2023/12/03 01:05:54;;;;;;;13.60;7.70;;;-1.00;99.90;;;;;;5000421;28;20077;-78
2023/12/03 01:08:19;;;;;;;12.00;7.67;;;-1.10;99.90;;;;;;5003303;28;20030;-79
2023/12/03 01:10:45;;;;;;;12.50;7.63;;;-1.10;99.90;;;;;;5000990;28;20506;-78
2023/12/03 01:13:11;;;;;;;13.63;7.80;;;-1.10;99.90;;;;;;4998286;28;20034;-78
2023/12/03 01:15:36;;;;;;;12.37;7.40;;;-1.10;99.90;;;;;;5001893;28;20446;-77
2023/12/03 01:18:02;;;;;;;14.03;7.40;;;-1.20;99.90;;;;;;5002070;28;20044;-78
2023/12/03 01:20:28;;;;;;;14.37;7.43;;;-1.20;99.90;;;;;;5004954;28;20070;-79
2023/12/03 01:22:54;;;;;;;11.90;6.50;;;-1.20;99.90;;;;;;4997499;28;20070;-79
2023/12/03 01:25:20;;;;;;;11.47;7.13;;;-1.20;99.90;;;;;;4999263;28;20033;-78
2023/12/03 01:27:46;;;;;;;12.60;6.77;;;-1.20;99.90;;;;;;5006619;28;20046;-78
2023/12/03 01:30:12;;;;;;;9.50;6.20;;;-1.20;99.90;;;;;;5001967;28;20038;-79
2023/12/03 01:32:37;;;;;;;9.77;5.90;;;-1.20;99.90;;;;;;5004774;28;20040;-79
2023/12/03 01:35:03;;;;;;;12.33;6.33;;;-1.30;99.90;;;;;;5007266;28;20049;-78
2023/12/03 01:37:29;;;;;;;10.97;6.70;;;-1.20;99.90;;;;;;4999257;28;20034;-78
2023/12/03 01:39:54;;;;;;;10.70;6.70;;;-1.20;99.90;;;;;;5004200;28;20511;-79
2023/12/03 01:42:20;;;;;;;9.03;5.80;;;-1.30;99.90;;;;;;5005101;28;20042;-78
2023/12/03 01:44:46;;;;;;;9.63;6.27;;;-1.30;99.90;;;;;;5004784;28;20507;-80
2023/12/03 01:47:14;;;;;;;12.77;6.60;;;-1.40;99.90;;;;;;5006239;28;20111;-79
2023/12/03 01:49:40;;;;;;;8.53;5.77;;;-1.40;99.90;;;;;;5006163;28;20037;-78
2023/12/03 01:52:06;;;;;;;12.90;6.53;;;-1.40;99.90;;;;;;5003192;28;20041;-80
2023/12/03 01:54:36;;;;;;;9.63;5.80;;;-1.50;99.90;;;;;;4998609;28;20061;-78
2023/12/03 01:57:02;;;;;;;8.23;5.63;;;-1.50;99.90;;;;;;4984475;28;20052;-79
2023/12/03 01:59:29;;;;;;;8.43;5.57;;;-1.60;99.90;;;;;;4996245;28;20046;-79
2023/12/03 02:01:54;;;;;;;9.37;5.63;;;-1.70;99.90;;;;;;4994976;28;20066;-80
2023/12/03 02:04:20;;;;;;;8.00;5.40;;;-1.80;99.90;;;;;;4994462;28;20511;-79
2023/12/03 02:06:46;;;;;;;9.60;5.83;;;-1.70;99.90;;;;;;5015945;28;20074;-78
2023/12/03 02:09:14;;;;;;;8.70;5.90;;;-1.70;99.90;;;;;;4996108;28;20040;-78
2023/12/03 02:11:40;;;;;;;8.10;5.63;;;-1.10;99.90;;;;;;4984524;28;20042;-79
2023/12/03 02:14:06;;;;;;;7.30;5.17;;;-1.80;99.90;;;;;;5000921;28;20484;-79
2023/12/03 02:16:34;;;;;;;9.13;5.33;;;-1.80;99.90;;;;;;4994867;28;20099;-78
2023/12/03 02:19:01;;;;;;;8.07;5.73;;;-1.80;99.90;;;;;;5001819;28;20511;-79
2023/12/03 02:21:26;;;;;;;7.63;5.17;;;-1.80;99.90;;;;;;4999323;28;20045;-79
2023/12/03 02:23:52;;;;;;;8.43;5.33;;;-1.90;99.90;;;;;;4997516;28;20109;-78
2023/12/03 02:26:17;;;;;;;8.93;4.97;;;-1.80;99.90;;;;;;4997061;28;20034;-80
2023/12/03 02:28:43;;;;;;;8.10;5.23;;;-1.80;99.90;;;;;;4996968;28;20045;-80
2023/12/03 02:31:09;;;;;;;8.50;5.33;;;-1.80;99.90;;;;;;4997471;28;20066;-80
2023/12/03 02:33:34;;;;;;;9.53;5.20;;;-1.80;99.90;;;;;;4995167;28;20503;-80
2023/12/03 02:36:01;;;;;;;7.93;4.97;;;-1.80;99.90;;;;;;4994056;28;20038;-79
2023/12/03 02:38:26;;;;;;;7.13;4.53;;;-1.90;99.90;;;;;;5000771;28;20037;-80
2023/12/03 02:40:54;;;;;;;7.17;4.90;;;-1.80;99.90;;;;;;4994624;28;20499;-78
2023/12/03 02:43:20;;;;;;;9.80;5.00;;;-1.80;99.90;;;;;;4971610;28;20077;-82
2023/12/03 02:45:45;;;;;;;6.93;4.77;;;-1.80;99.90;;;;;;5000888;28;20045;-79
2023/12/03 02:48:11;;;;;;;6.60;4.57;;;-1.80;99.90;;;;;;4994151;28;20043;-80
2023/12/03 02:50:37;;;;;;;6.57;4.77;;;-1.90;99.90;;;;;;4996110;28;20041;-80
2023/12/03 02:53:02;;;;;;;7.03;4.93;;;-1.90;99.90;;;;;;4992999;28;20038;-79
2023/12/03 02:55:28;;;;;;;7.47;4.87;;;-1.90;99.90;;;;;;4999212;28;20096;-80
2023/12/03 02:57:53;;;;;;;8.10;4.40;;;-1.90;99.90;;;;;;4980394;28;20120;-80
2023/12/03 03:00:19;;;;;;;7.43;4.97;;;-1.90;99.90;;;;;;4997339;28;20065;-79
2023/12/03 03:02:45;;;;;;;7.80;5.30;;;-1.90;99.90;;;;;;4980495;28;20406;-80
2023/12/03 03:05:10;;;;;;;8.17;5.07;;;-1.90;99.90;;;;;;4993375;28;20053;-79
2023/12/03 03:07:36;;;;;;;7.83;4.67;;;-1.80;99.90;;;;;;4994374;28;20041;-80
2023/12/03 03:10:02;;;;;;;8.60;5.10;;;-1.90;99.90;;;;;;4998350;28;20026;-80
2023/12/03 03:12:28;;;;;;;8.07;5.33;;;-1.90;99.90;;;;;;4996533;28;20077;-79
2023/12/03 03:14:53;;;;;;;7.27;4.90;;;-2.00;99.90;;;;;;4995822;28;20038;-80
2023/12/03 03:17:19;;;;;;;8.03;5.00;;;-2.00;99.90;;;;;;4993810;28;20117;-80
2023/12/03 03:19:45;;;;;;;7.60;5.33;;;-2.00;99.90;;;;;;4999894;28;20121;-78
2023/12/03 03:22:12;;;;;;;8.80;5.37;;;-2.00;99.90;;;;;;4984187;28;20044;-79
2023/12/03 03:24:38;;;;;;;7.33;4.77;;;-2.00;99.90;;;;;;4997345;28;20098;-79
2023/12/03 03:27:04;;;;;;;8.77;4.70;;;-2.00;99.90;;;;;;4998806;28;20470;-79
2023/12/03 03:29:29;;;;;;;8.97;5.13;;;-2.00;99.90;;;;;;4998312;28;20064;-79
2023/12/03 03:31:55;;;;;;;7.53;5.10;;;-2.00;99.90;;;;;;4983761;28;20073;-78
2023/12/03 03:34:21;;;;;;;9.47;5.53;;;-2.00;99.90;;;;;;5000541;28;20065;-79
2023/12/03 03:36:46;;;;;;;7.80;5.63;;;-2.00;99.90;;;;;;4990940;28;20478;-80
2023/12/03 03:39:12;;;;;;;10.73;5.43;;;-2.00;99.90;;;;;;4999141;28;20052;-79
2023/12/03 03:41:37;;;;;;;7.50;5.07;;;-2.10;99.90;;;;;;4994863;28;20065;-79
2023/12/03 03:44:03;;;;;;;8.40;5.50;;;-2.10;99.90;;;;;;4984107;28;20038;-78
2023/12/03 03:46:29;;;;;;;8.00;5.50;;;-2.10;99.90;;;;;;5000508;28;20113;-79
2023/12/03 03:48:54;;;;;;;8.70;5.70;;;-2.10;99.90;;;;;;4996427;28;20257;-79
2023/12/03 03:51:20;;;;;;;11.50;6.30;;;-2.10;99.90;;;;;;4992496;28;20034;-78
2023/12/03 03:53:45;;;;;;;8.97;6.33;;;-2.10;99.90;;;;;;5000207;28;20092;-78
2023/12/03 03:56:12;;;;;;;10.30;7.00;;;-2.20;99.90;;;;;;4998762;28;20076;-78
2023/12/03 03:58:37;;;;;;;9.33;6.67;;;-2.10;99.90;;;;;;5000558;28;20042;-78
2023/12/03 04:01:04;;;;;;;11.63;7.10;;;-2.10;99.90;;;;;;5000110;28;20041;-78
2023/12/03 04:03:30;;;;;;;10.13;7.03;;;-2.00;99.90;;;;;;4985054;28;20462;-78
2023/12/03 04:05:58;;;;;;;12.00;7.40;;;-2.00;99.90;;;;;;4997565;28;20034;-78
2023/12/03 04:08:24;;;;;;;13.93;7.70;;;-2.00;99.90;;;;;;5001758;28;20070;-79
2023/12/03 04:10:50;;;;;;;13.67;8.13;;;-2.00;99.90;;;;;;4995449;28;20082;-78
2023/12/03 04:13:15;;;;;;;13.20;8.40;;;-2.00;99.90;;;;;;5000918;28;20034;-79
2023/12/03 04:15:41;;;;;;;22.40;9.60;;;-1.90;99.90;;;;;;4997136;28;20037;-79
2023/12/03 04:18:06;;;;;;;55.53;10.83;;;-1.90;99.90;;;;;;4992836;28;20073;-79
2023/12/03 04:20:33;;;;;;;52.67;12.03;;;-1.80;99.90;;;;;;4990972;28;20033;-78
2023/12/03 04:22:58;;;;;;;49.37;11.37;;;-1.70;99.90;;;;;;4995500;28;20049;-78
2023/12/03 04:25:24;;;;;;;63.47;12.77;;;-1.70;99.90;;;;;;4983417;28;20038;-79
2023/12/03 04:27:49;;;;;;;49.77;12.70;;;-1.70;99.90;;;;;;4993812;28;20041;-79
2023/12/03 04:30:15;;;;;;;63.43;12.97;;;-1.70;99.90;;;;;;4999042;28;20026;-78
2023/12/03 04:32:41;;;;;;;62.40;14.60;;;-1.70;99.90;;;;;;4993076;28;20126;-78
2023/12/03 04:35:08;;;;;;;66.87;14.70;;;-1.70;99.90;;;;;;4992663;28;20034;-78
2023/12/03 04:37:34;;;;;;;73.13;16.07;;;-1.60;99.90;;;;;;4995859;28;20130;-78
2023/12/03 04:39:59;;;;;;;65.83;17.33;;;-1.60;99.90;;;;;;4996487;28;20074;-79
2023/12/03 04:42:25;;;;;;;81.93;17.30;;;-1.50;99.90;;;;;;4993622;28;20046;-78
2023/12/03 04:44:51;;;;;;;60.07;17.03;;;-1.50;99.90;;;;;;4992131;28;20056;-77
2023/12/03 04:47:16;;;;;;;88.07;18.17;;;-1.50;99.90;;;;;;4990045;28;20398;-77
2023/12/03 04:49:42;;;;;;;95.03;18.43;;;-1.50;99.90;;;;;;4993627;28;20409;-78
2023/12/03 04:52:08;;;;;;;64.33;17.83;;;-1.50;99.90;;;;;;4991099;28;20037;-78
2023/12/03 04:54:33;;;;;;;126.90;20.90;;;-1.40;99.90;;;;;;4995490;28;20058;-78
2023/12/03 04:56:59;;;;;;;108.80;20.00;;;-1.40;99.90;;;;;;4996508;28;20040;-78
2023/12/03 04:59:24;;;;;;;136.77;19.20;;;-1.40;99.90;;;;;;4988946;28;20045;-78
2023/12/03 05:01:50;;;;;;;92.73;21.10;;;-1.30;99.90;;;;;;4992336;28;20041;-78
2023/12/03 05:04:16;;;;;;;148.40;23.33;;;-1.30;99.90;;;;;;4990605;28;20041;-78
2023/12/03 05:06:41;;;;;;;215.97;25.30;;;-1.30;99.90;;;;;;4988483;28;20038;-78
2023/12/03 05:09:08;;;;;;;132.17;24.77;;;-1.20;99.90;;;;;;4992352;28;20034;-78
2023/12/03 05:11:39;;;;;;;168.73;28.90;;;-1.10;99.90;;;;;;4996495;28;20541;-78
2023/12/03 05:14:04;;;;;;;228.13;27.50;;;-1.00;99.90;;;;;;5012711;28;20041;-79
2023/12/03 05:16:30;;;;;;;126.17;26.97;;;-1.00;99.90;;;;;;4997280;28;20045;-78
2023/12/03 05:18:55;;;;;;;228.07;31.57;;;-0.90;99.90;;;;;;4995853;28;20406;-79
2023/12/03 05:21:21;;;;;;;176.37;28.50;;;-0.90;99.90;;;;;;4995243;28;20065;-79
2023/12/03 05:23:46;;;;;;;333.53;33.93;;;-0.90;99.90;;;;;;4995639;28;20382;-79
2023/12/03 05:26:12;;;;;;;139.80;27.57;;;-0.90;99.90;;;;;;4995719;28;20038;-79
2023/12/03 05:28:38;;;;;;;129.63;28.67;;;-0.80;99.90;;;;;;4989047;28;20057;-79
2023/12/03 05:31:04;;;;;;;123.53;29.50;;;-0.80;99.90;;;;;;4977806;28;20080;-80
2023/12/03 05:33:30;;;;;;;93.33;29.53;;;-0.70;99.90;;;;;;4998073;28;20037;-79
2023/12/03 05:35:56;;;;;;;164.83;32.30;;;-0.70;99.90;;;;;;4996447;28;20049;-79
2023/12/03 05:38:21;;;;;;;151.83;33.23;;;-0.70;99.90;;;;;;4991969;28;20038;-79
2023/12/03 05:40:47;;;;;;;203.83;33.47;;;-0.60;99.90;;;;;;4994645;28;20073;-78
2023/12/03 05:43:14;;;;;;;118.00;29.20;;;-0.60;99.90;;;;;;4994659;28;20042;-78
2023/12/03 05:45:40;;;;;;;168.07;29.70;;;-0.60;99.90;;;;;;4989719;28;20030;-78
2023/12/03 05:48:06;;;;;;;256.43;30.87;;;-0.50;99.90;;;;;;4993776;28;20044;-78
2023/12/03 05:50:32;;;;;;;277.57;31.30;;;-0.50;99.90;;;;;;4991393;28;20415;-78
2023/12/03 05:52:58;;;;;;;106.40;26.10;;;-0.50;99.90;;;;;;4993894;28;20053;-78
2023/12/03 05:55:24;;;;;;;250.50;29.70;;;-0.50;99.90;;;;;;4989361;28;20038;-78
2023/12/03 05:57:49;;;;;;;132.20;25.10;;;-0.50;99.90;;;;;;4993556;28;20038;-78
2023/12/03 06:00:16;;;;;;;97.73;23.00;;;-0.50;99.90;;;;;;4992065;28;20041;-78
2023/12/03 06:02:42;;;;;;;91.47;22.33;;;-0.50;99.90;;;;;;4995294;28;20038;-77
2023/12/03 06:05:09;;;;;;;107.67;22.43;;;-0.40;99.90;;;;;;4993627;28;20503;-78
2023/12/03 06:07:34;;;;;;;101.10;21.30;;;-0.40;99.90;;;;;;4989190;28;20526;-79
2023/12/03 06:10:00;;;;;;;155.33;21.13;;;-0.40;99.90;;;;;;4994164;28;20038;-79
2023/12/03 06:12:26;;;;;;;158.97;22.07;;;-0.40;99.90;;;;;;4987559;28;20080;-79
2023/12/03 06:14:52;;;;;;;140.33;20.37;;;-0.30;99.90;;;;;;4992297;28;20068;-79
2023/12/03 06:17:17;;;;;;;244.40;22.57;;;-0.30;99.90;;;;;;4991952;28;20038;-79
2023/12/03 06:19:44;;;;;;;99.73;20.17;;;-0.30;99.90;;;;;;4979316;28;20133;-80
2023/12/03 06:22:10;;;;;;;132.70;19.33;;;0.50;99.90;;;;;;4996583;28;20050;-80
2023/12/03 06:24:35;;;;;;;105.40;18.67;;;-0.30;99.90;;;;;;4995944;28;20088;-80
2023/12/03 06:27:01;;;;;;;85.90;18.27;;;-0.30;99.90;;;;;;4997569;28;20503;-80
2023/12/03 06:29:27;;;;;;;85.63;18.57;;;-0.30;99.90;;;;;;4993809;28;20385;-81
2023/12/03 06:31:52;;;;;;;128.97;18.90;;;-0.30;99.90;;;;;;4997988;28;20420;-81
2023/12/03 06:34:18;;;;;;;129.20;19.97;;;-0.20;99.90;;;;;;4997659;28;20495;-81
2023/12/03 06:36:44;;;;;;;91.40;19.27;;;0.20;99.90;;;;;;4995723;28;20061;-80
2023/12/03 06:39:10;;;;;;;187.13;19.57;;;-0.30;99.90;;;;;;4993378;28;20050;-80
2023/12/03 06:41:35;;;;;;;100.40;20.30;;;-0.20;99.90;;;;;;4994595;28;20044;-79
2023/12/03 06:44:01;;;;;;;258.37;21.27;;;-0.20;99.90;;;;;;4992739;28;20046;-79
2023/12/03 06:46:27;;;;;;;87.03;18.00;;;-0.20;99.90;;;;;;4990335;28;20040;-79
2023/12/03 06:48:52;;;;;;;120.57;18.60;;;-0.20;99.90;;;;;;5007242;28;20144;-80
2023/12/03 06:51:18;;;;;;;106.47;17.07;;;-0.20;99.90;;;;;;4987333;28;20037;-79
2023/12/03 06:53:43;;;;;;;85.70;16.37;;;-0.20;99.90;;;;;;4989819;28;20124;-79
2023/12/03 06:56:10;;;;;;;121.30;16.50;;;-0.20;99.90;;;;;;5006827;28;20062;-79
2023/12/03 06:58:36;;;;;;;79.53;17.37;;;-0.20;99.90;;;;;;4990323;28;20503;-79
2023/12/03 07:01:02;;;;;;;209.47;20.30;;;-0.20;99.90;;;;;;4993334;28;20048;-81
2023/12/03 07:03:28;;;;;;;61.73;15.00;;;0.00;99.90;;;;;;4989764;28;20042;-79
2023/12/03 07:05:54;;;;;;;92.83;15.83;;;-0.10;99.90;;;;;;4986417;28;20038;-78
2023/12/03 07:08:20;;;;;;;99.13;14.33;;;-0.10;99.90;;;;;;4990447;28;20040;-79
2023/12/03 07:10:46;;;;;;;75.17;15.00;;;-0.10;99.90;;;;;;4991970;28;20120;-79
2023/12/03 07:13:11;;;;;;;123.07;14.73;;;-0.10;99.90;;;;;;4992921;28;20402;-80
2023/12/03 07:15:37;;;;;;;130.93;16.50;;;-0.10;99.90;;;;;;4995774;28;20041;-81
2023/12/03 07:18:03;;;;;;;74.63;14.23;;;-0.10;99.90;;;;;;4994696;28;20038;-81
2023/12/03 07:20:29;;;;;;;113.60;16.03;;;0.00;99.90;;;;;;4996000;28;20030;-81
2023/12/03 07:22:55;;;;;;;87.47;15.73;;;-0.10;99.90;;;;;;4996844;28;20045;-81
2023/12/03 07:25:22;;;;;;;109.10;17.90;;;0.00;99.90;;;;;;4998134;28;20073;-81
2023/12/03 07:27:48;;;;;;;138.47;17.60;;;0.00;99.90;;;;;;4992495;28;20042;-80
2023/12/03 07:30:14;;;;;;;71.63;16.10;;;0.00;99.90;;;;;;4999567;28;20081;-80
2023/12/03 07:32:39;;;;;;;147.53;18.10;;;0.00;99.90;;;;;;4994087;28;20033;-79
2023/12/03 07:35:05;;;;;;;86.07;18.00;;;0.00;99.90;;;;;;4989879;28;20467;-78
2023/12/03 07:37:31;;;;;;;109.30;17.77;;;0.00;99.90;;;;;;4997378;28;20108;-78
2023/12/03 07:39:57;;;;;;;119.43;17.23;;;0.00;99.90;;;;;;4986068;28;20038;-79
2023/12/03 07:42:25;;;;;;;134.53;18.50;;;0.00;99.90;;;;;;4993896;28;20084;-79
2023/12/03 07:44:51;;;;;;;85.87;15.93;;;0.00;99.90;;;;;;4991867;28;20034;-80
2023/12/03 07:47:17;;;;;;;100.10;17.97;;;0.00;99.90;;;;;;4995660;28;20049;-80
2023/12/03 07:49:43;;;;;;;102.87;19.77;;;0.00;99.90;;;;;;4991565;28;20038;-81
2023/12/03 07:52:08;;;;;;;99.60;17.67;;;0.00;99.90;;;;;;4975800;28;20041;-80
2023/12/03 07:54:34;;;;;;;121.83;18.43;;;0.00;99.90;;;;;;5000576;28;20042;-81
2023/12/03 07:57:00;;;;;;;83.13;17.30;;;0.10;99.90;;;;;;4992889;28;20131;-81
2023/12/03 07:59:25;;;;;;;103.50;19.37;;;0.10;99.90;;;;;;4994063;28;20399;-82
2023/12/03 08:01:51;;;;;;;77.20;14.37;;;0.10;99.90;;;;;;4994378;28;20044;-83
2023/12/03 08:04:17;;;;;;;80.87;15.07;;;0.10;99.90;;;;;;5000096;28;20046;-82
2023/12/03 08:06:43;;;;;;;66.13;13.40;;;0.10;99.90;;;;;;4997233;28;20053;-83
2023/12/03 08:09:08;;;;;;;56.77;13.73;;;0.20;99.90;;;;;;5000258;28;20511;-81
2023/12/03 08:11:35;;;;;;;68.97;12.40;;;0.20;99.90;;;;;;4986411;28;20495;-81
2023/12/03 08:14:01;;;;;;;93.43;15.17;;;0.10;99.90;;;;;;5004912;28;20037;-82
2023/12/03 08:16:28;;;;;;;72.20;14.07;;;0.20;99.90;;;;;;4987157;28;20120;-82
2023/12/03 08:18:53;;;;;;;56.80;12.77;;;0.20;99.90;;;;;;5003490;28;20291;-82
2023/12/03 08:21:19;;;;;;;57.67;14.30;;;0.20;99.90;;;;;;5002499;28;20045;-80
2023/12/03 08:23:44;;;;;;;67.03;14.30;;;0.20;99.90;;;;;;4977005;28;20270;-80
2023/12/03 08:26:10;;;;;;;65.73;13.73;;;0.20;99.90;;;;;;4995698;28;20035;-81
2023/12/03 08:28:36;;;;;;;75.87;13.97;;;0.20;99.90;;;;;;5002160;28;20041;-82
2023/12/03 08:31:02;;;;;;;73.13;14.33;;;0.20;99.90;;;;;;4998949;28;20030;-81
2023/12/03 08:33:27;;;;;;;78.17;14.30;;;0.20;99.90;;;;;;4999897;28;20841;-81
2023/12/03 08:35:53;;;;;;;78.47;16.00;;;0.30;99.90;;;;;;4984653;28;20119;-80
2023/12/03 08:38:19;;;;;;;72.63;15.47;;;0.30;99.90;;;;;;4999966;28;20057;-80
2023/12/03 08:40:44;;;;;;;72.60;16.83;;;0.30;99.90;;;;;;5000225;28;20030;-80
2023/12/03 08:43:10;;;;;;;63.20;15.87;;;0.30;99.90;;;;;;4990997;28;20030;-80
2023/12/03 08:45:36;;;;;;;60.23;16.70;;;0.30;99.90;;;;;;5006487;28;20041;-81
2023/12/03 08:48:01;;;;;;;58.33;16.00;;;0.40;99.90;;;;;;5007648;28;20037;-81
2023/12/03 08:50:29;;;;;;;58.67;14.83;;;0.40;99.90;;;;;;4998127;28;20037;-79
2023/12/03 08:52:56;;;;;;;70.53;15.47;;;0.40;99.90;;;;;;4986787;28;20052;-80
2023/12/03 08:55:21;;;;;;;62.50;15.53;;;0.50;99.90;;;;;;4998709;28;20030;-81
2023/12/03 08:57:48;;;;;;;62.60;15.30;;;0.50;99.90;;;;;;5006718;28;20452;-81
2023/12/03 09:00:15;;;;;;;68.43;17.30;;;0.50;99.90;;;;;;5003867;28;20038;-81
2023/12/03 09:02:43;;;;;;;63.57;16.77;;;0.50;99.90;;;;;;5004496;28;20080;-79
2023/12/03 09:05:10;;;;;;;74.17;18.40;;;0.60;99.90;;;;;;5001887;28;20087;-79
2023/12/03 09:07:35;;;;;;;80.00;17.17;;;0.60;99.90;;;;;;5001720;28;20411;-80
2023/12/03 09:10:01;;;;;;;68.70;19.33;;;0.60;99.90;;;;;;5003747;28;20041;-79
2023/12/03 09:12:27;;;;;;;78.27;21.87;;;0.70;99.90;;;;;;5001654;28;20038;-79
2023/12/03 09:14:52;;;;;;;78.03;24.90;;;0.70;99.90;;;;;;5002278;28;20610;-80
2023/12/03 09:17:18;;;;;;;83.27;24.47;;;0.70;99.90;;;;;;5004977;28;20119;-79
2023/12/03 09:19:43;;;;;;;76.77;22.50;;;0.80;99.90;;;;;;4989246;28;20103;-79
2023/12/03 09:22:09;;;;;;;81.97;21.77;;;0.80;99.90;;;;;;5015791;28;20037;-78
2023/12/03 09:24:35;;;;;;;83.30;26.97;;;0.80;99.90;;;;;;5000371;28;20138;-79
2023/12/03 09:27:00;;;;;;;83.40;23.93;;;0.80;99.90;;;;;;4997706;28;20026;-79
2023/12/03 09:29:26;;;;;;;82.23;25.97;;;0.90;99.90;;;;;;5001223;28;20030;-80
2023/12/03 09:31:51;;;;;;;80.97;23.17;;;0.90;99.90;;;;;;5000406;28;20561;-79
2023/12/03 09:34:17;;;;;;;67.80;23.07;;;0.90;99.90;;;;;;5001018;28;20046;-79
2023/12/03 09:36:43;;;;;;;76.27;22.80;;;1.00;99.90;;;;;;5000636;28;20101;-78
2023/12/03 09:39:08;;;;;;;58.30;20.33;;;0.90;99.90;;;;;;5001880;28;20355;-79
2023/12/03 09:41:47;;;;;;;69.03;21.63;;;1.10;99.90;;;;;;4983052;28;20411;-79
2023/12/03 09:44:22;;;;;;;70.73;23.47;;;2.00;99.90;;;;;;4993559;28;20045;-79
2023/12/03 09:46:50;;;;;;;60.97;21.00;;;1.00;99.90;;;;;;4999832;28;20063;-79
2023/12/03 09:49:18;;;;;;;59.20;20.40;;;1.10;99.90;;;;;;4980335;28;20045;-78
2023/12/03 09:51:43;;;;;;;63.73;21.33;;;1.10;99.90;;;;;;4996513;28;20117;-79
2023/12/03 09:54:09;;;;;;;67.47;21.70;;;1.00;99.90;;;;;;4994496;28;20050;-79
2023/12/03 09:56:38;;;;;;;63.33;21.80;;;1.10;99.90;;;;;;4990525;28;20544;-79
2023/12/03 09:59:06;;;;;;;58.30;22.57;;;2.00;99.90;;;;;;4998393;28;20041;-78
2023/12/03 10:01:36;;;;;;;65.97;23.27;;;1.10;99.90;;;;;;4994079;28;20053;-79
2023/12/03 10:04:02;;;;;;;65.07;22.83;;;1.10;99.90;;;;;;4994312;28;20046;-81
2023/12/03 10:06:29;;;;;;;63.90;23.80;;;1.10;99.90;;;;;;5001448;28;20625;-80
2023/12/03 10:08:55;;;;;;;57.70;22.03;;;1.10;99.90;;;;;;5009379;28;20069;-79
2023/12/03 10:11:27;;;;;;;59.90;25.00;;;1.30;99.90;;;;;;5013445;28;20034;-79
2023/12/03 10:13:56;;;;;;;64.33;27.90;;;1.20;99.90;;;;;;5003145;28;20061;-79
2023/12/03 10:16:22;;;;;;;63.43;26.10;;;1.30;99.90;;;;;;5010751;28;20038;-80
2023/12/03 10:18:50;;;;;;;58.27;24.60;;;1.30;99.90;;;;;;5011198;28;20072;-80
2023/12/03 10:21:15;;;;;;;57.40;24.53;;;1.30;99.90;;;;;;5007490;28;20045;-80
2023/12/03 10:23:41;;;;;;;57.37;25.20;;;1.40;99.90;;;;;;5002046;28;20050;-79
2023/12/03 10:26:10;;;;;;;57.53;24.33;;;1.40;99.90;;;;;;5023420;28;20533;-80
2023/12/03 10:28:36;;;;;;;57.40;25.47;;;1.40;99.90;;;;;;5006123;28;20110;-80
2023/12/03 10:31:02;;;;;;;54.30;25.37;;;1.40;99.90;;;;;;4997990;28;20037;-79
2023/12/03 10:33:27;;;;;;;56.57;26.63;;;1.40;99.90;;;;;;5008072;28;20069;-80
2023/12/03 10:36:02;;;;;;;57.63;25.10;;;1.40;99.90;;;;;;5006034;28;20077;-80
2023/12/03 10:38:38;;;;;;;56.43;25.73;;;1.40;99.90;;;;;;5006167;28;20460;-79
2023/12/03 10:41:08;;;;;;;53.80;24.00;;;1.50;99.90;;;;;;5016705;28;20046;-80
2023/12/03 10:43:39;;;;;;;51.97;25.43;;;1.50;99.90;;;;;;5001419;28;20038;-80
2023/12/03 10:46:14;;;;;;;53.07;24.07;;;1.50;99.90;;;;;;4982429;28;20039;-79
2023/12/03 10:48:40;;;;;;;50.90;23.40;;;1.50;99.90;;;;;;5002907;28;20053;-80
2023/12/03 10:51:08;;;;;;;49.60;23.73;;;1.50;99.90;;;;;;5003954;28;20041;-79
2023/12/03 10:53:35;;;;;;;48.53;23.33;;;1.60;99.90;;;;;;5006378;28;20122;-80
2023/12/03 10:56:03;;;;;;;47.63;23.33;;;2.10;99.90;;;;;;4999595;28;20069;-80
2023/12/03 10:58:39;;;;;;;47.37;23.67;;;1.60;99.90;;;;;;4999071;28;20088;-81
2023/12/03 11:01:19;;;;;;;51.70;23.80;;;1.70;99.90;;;;;;5002073;28;20034;-80
2023/12/03 11:03:55;;;;;;;53.80;24.47;;;1.80;99.90;;;;;;4999485;28;20419;-79
2023/12/03 11:06:23;;;;;;;46.23;22.53;;;1.90;99.90;;;;;;4993133;28;20037;-79
2023/12/03 11:08:51;;;;;;;47.77;23.50;;;1.90;99.90;;;;;;4995984;28;20046;-80
2023/12/03 11:11:20;;;;;;;48.90;24.13;;;1.90;99.90;;;;;;4992715;28;20050;-79
2023/12/03 11:13:56;;;;;;;50.90;24.07;;;1.90;99.90;;;;;;4996529;28;20097;-79
2023/12/03 11:16:25;;;;;;;47.53;23.87;;;1.90;99.90;;;;;;4992958;28;20124;-79
2023/12/03 11:19:19;;;;;;;50.20;24.50;;;1.90;99.90;;;;;;4995838;28;20046;-79
2023/12/03 11:22:22;;;;;;;46.33;22.53;;;2.70;99.90;;;;;;4988972;28;20077;-79
2023/12/03 11:24:50;;;;;;;43.87;22.40;;;1.90;99.90;;;;;;5008084;28;20038;-78
2023/12/03 11:27:16;;;;;;;44.77;22.83;;;1.90;99.90;;;;;;5009543;28;20042;-79
2023/12/03 11:30:04;;;;;;;45.17;23.20;;;1.90;99.90;;;;;;5003086;28;20033;-79
2023/12/03 11:32:29;;;;;;;44.23;23.90;;;2.00;99.90;;;;;;4994690;28;20072;-80
2023/12/03 11:34:56;;;;;;;46.45;24.58;;;2.00;99.90;;;;;;4990156;28;20037;-77
2023/12/03 11:37:24;;;;;;;44.10;23.50;;;1.90;99.90;;;;;;4991178;28;20525;-77
2023/12/03 11:39:50;;;;;;;43.30;23.47;;;1.80;99.90;;;;;;4985281;28;20049;-77
2023/12/03 11:42:17;;;;;;;44.23;24.33;;;1.90;99.90;;;;;;4992840;28;20041;-77
2023/12/03 11:44:43;;;;;;;43.77;23.80;;;1.90;99.90;;;;;;4992923;28;20064;-76
2023/12/03 11:47:11;;;;;;;39.50;22.03;;;1.80;99.90;;;;;;4977010;28;20034;-77
2023/12/03 11:49:38;;;;;;;43.90;23.73;;;1.90;99.90;;;;;;4985660;28;20137;-78
2023/12/03 11:52:05;;;;;;;37.53;21.70;;;1.80;99.90;;;;;;4977740;28;20088;-77
2023/12/03 11:54:49;;;;;;;40.00;21.83;;;1.80;99.90;;;;;;4977660;28;20052;-76
2023/12/03 11:57:15;;;;;;;35.47;20.20;;;1.70;99.90;;;;;;4988767;28;20038;-77
2023/12/03 11:59:44;;;;;;;38.80;21.77;;;1.60;99.90;;;;;;4991954;28;20112;-76
2023/12/03 12:02:10;;;;;;;39.43;20.37;;;1.60;99.90;;;;;;4993150;28;20051;-77
2023/12/03 12:04:35;;;;;;;38.50;20.97;;;1.60;99.90;;;;;;4988114;28;20034;-77
2023/12/03 12:07:17;;;;;;;38.70;21.70;;;1.50;99.90;;;;;;4993109;28;20091;-74
2023/12/03 12:09:47;;;;;;;42.17;21.60;;;1.50;99.90;;;;;;4984451;28;20101;-76
2023/12/03 12:12:17;;;;;;;41.57;22.00;;;1.40;99.90;;;;;;4988987;28;20081;-77
2023/12/03 12:14:45;;;;;;;38.63;21.03;;;1.40;99.90;;;;;;4984491;28;20510;-77
2023/12/03 12:17:11;;;;;;;40.00;21.27;;;1.50;99.90;;;;;;4986432;28;20088;-75
2023/12/03 12:19:44;;;;;;;35.37;20.03;;;1.50;99.90;;;;;;4991567;28;20050;-74
2023/12/03 12:22:10;;;;;;;37.50;19.93;;;1.50;99.90;;;;;;4977576;28;20044;-77
2023/12/03 12:24:36;;;;;;;43.30;21.40;;;1.50;99.90;;;;;;4996389;28;20125;-75
2023/12/03 12:27:01;;;;;;;38.10;20.27;;;1.50;99.90;;;;;;4997342;28;20087;-75
2023/12/03 12:29:27;;;;;;;35.90;19.47;;;1.50;99.90;;;;;;4997318;28;20045;-76